地図

経路データ

SID SEASON NUMBER BASIN SUBBASIN NAME ISO_TIME NATURE LAT LON WMO_WIND WMO_PRES WMO_AGENCY TRACK_TYPE DIST2LAND LANDFALL IFLAG USA_AGENCY USA_ATCF_ID USA_LAT USA_LON USA_RECORD USA_STATUS USA_WIND USA_PRES USA_SSHS USA_R34_NE USA_R34_SE USA_R34_SW USA_R34_NW USA_R50_NE USA_R50_SE USA_R50_SW USA_R50_NW USA_R64_NE USA_R64_SE USA_R64_SW USA_R64_NW USA_POCI USA_ROCI USA_RMW USA_EYE TOKYO_LAT TOKYO_LON TOKYO_GRADE TOKYO_WIND TOKYO_PRES TOKYO_R50_DIR TOKYO_R50_LONG TOKYO_R50_SHORT TOKYO_R30_DIR TOKYO_R30_LONG TOKYO_R30_SHORT TOKYO_LAND CMA_LAT CMA_LON CMA_CAT CMA_WIND CMA_PRES HKO_LAT HKO_LON HKO_CAT HKO_WIND HKO_PRES NEWDELHI_LAT NEWDELHI_LON NEWDELHI_GRADE NEWDELHI_WIND NEWDELHI_PRES NEWDELHI_CI NEWDELHI_DP NEWDELHI_POCI REUNION_LAT REUNION_LON REUNION_TYPE REUNION_WIND REUNION_PRES REUNION_TNUM REUNION_CI REUNION_RMW REUNION_R34_NE REUNION_R34_SE REUNION_R34_SW REUNION_R34_NW REUNION_R50_NE REUNION_R50_SE REUNION_R50_SW REUNION_R50_NW REUNION_R64_NE REUNION_R64_SE REUNION_R64_SW REUNION_R64_NW BOM_LAT BOM_LON BOM_TYPE BOM_WIND BOM_PRES BOM_TNUM BOM_CI BOM_RMW BOM_R34_NE BOM_R34_SE BOM_R34_SW BOM_R34_NW BOM_R50_NE BOM_R50_SE BOM_R50_SW BOM_R50_NW BOM_R64_NE BOM_R64_SE BOM_R64_SW BOM_R64_NW BOM_ROCI BOM_POCI BOM_EYE BOM_POS_METHOD BOM_PRES_METHOD NADI_LAT NADI_LON NADI_CAT NADI_WIND NADI_PRES WELLINGTON_LAT WELLINGTON_LON WELLINGTON_WIND WELLINGTON_PRES DS824_LAT DS824_LON DS824_STAGE DS824_WIND DS824_PRES TD9636_LAT TD9636_LON TD9636_STAGE TD9636_WIND TD9636_PRES TD9635_LAT TD9635_LON TD9635_WIND TD9635_PRES TD9635_ROCI NEUMANN_LAT NEUMANN_LON NEUMANN_CLASS NEUMANN_WIND NEUMANN_PRES MLC_LAT MLC_LON MLC_CLASS MLC_WIND MLC_PRES USA_GUST BOM_GUST BOM_GUST_PER REUNION_GUST REUNION_GUST_PER USA_SEAHGT USA_SEARAD_NE USA_SEARAD_SE USA_SEARAD_SW USA_SEARAD_NW STORM_SPEED STORM_DIR
2000290N30289 2000 96 NA NA MICHAEL 2000-10-15 12:00:00 SS 30.0000 -71.2000 30 1007 hurdat_atl main 722 715 O_____________ hurdat_atl AL172000 30.0000 -71.2000 SD 30 1007 -2 3 276
2000290N30289 2000 96 NA NA MICHAEL 2000-10-15 15:00:00 SS 30.0125 -71.3449 main 715 703 P_____________ AL172000 30.0125 -71.3449 SD 30 1006 -2 3 270
2000290N30289 2000 96 NA NA MICHAEL 2000-10-15 18:00:00 SS 30.0000 -71.5000 30 1006 hurdat_atl main 703 690 O_____________ hurdat_atl AL172000 30.0000 -71.5000 SD 30 1006 -2 3 257
2000290N30289 2000 96 NA NA MICHAEL 2000-10-15 21:00:00 SS 29.9500 -71.6651 main 690 690 P_____________ AL172000 29.9500 -71.6651 SD 32 1005 -2 3 249
2000290N30289 2000 96 NA NA MICHAEL 2000-10-16 00:00:00 SS 29.9000 -71.8000 35 1005 hurdat_atl main 693 687 O_____________ hurdat_atl AL172000 29.9000 -71.8000 SS 35 1005 -2 2 258
2000290N30289 2000 96 NA NA MICHAEL 2000-10-16 03:00:00 SS 29.9075 -71.8875 main 687 687 P_____________ AL172000 29.9075 -71.8875 SS 35 1005 -2 1 270
2000290N30289 2000 96 NA NA MICHAEL 2000-10-16 06:00:00 SS 29.9000 -71.9000 35 1005 hurdat_atl main 687 687 O_____________ hurdat_atl AL172000 29.9000 -71.9000 SS 35 1005 -2 1 157
2000290N30289 2000 96 NA NA MICHAEL 2000-10-16 09:00:00 SS 29.7925 -71.8299 main 702 702 P_____________ AL172000 29.7925 -71.8299 SS 35 1005 -2 3 139
2000290N30289 2000 96 NA NA MICHAEL 2000-10-16 12:00:00 SS 29.7000 -71.7000 35 1005 hurdat_atl main 716 716 O_____________ hurdat_atl AL172000 29.7000 -71.7000 SS 35 1005 -2 2 105
2000290N30289 2000 96 NA NA MICHAEL 2000-10-16 15:00:00 SS 29.7275 -71.5576 main 722 720 P_____________ AL172000 29.7275 -71.5576 SS 35 1004 -2 3 69
2000290N30289 2000 96 NA NA MICHAEL 2000-10-16 18:00:00 SS 29.8000 -71.4000 35 1004 hurdat_atl main 726 724 O_____________ hurdat_atl AL172000 29.8000 -71.4000 SS 35 1004 -2 3 64
2000290N30289 2000 96 NA NA MICHAEL 2000-10-16 21:00:00 SS 29.8650 -71.2350 main 730 730 P_____________ AL172000 29.8650 -71.2350 SS 35 1003 -2 3 69
2000290N30289 2000 96 NA NA MICHAEL 2000-10-17 00:00:00 TS 29.9000 -71.1000 35 1003 hurdat_atl main 736 736 O_____________ hurdat_atl AL172000 29.9000 -71.1000 TS 35 1003 0 2 93
2000290N30289 2000 96 NA NA MICHAEL 2000-10-17 03:00:00 TS 29.8575 -71.0350 main 743 743 P_____________ AL172000 29.8575 -71.0350 TS 40 1001 0 1 140
2000290N30289 2000 96 NA NA MICHAEL 2000-10-17 06:00:00 TS 29.8000 -71.0000 45 1000 hurdat_atl main 751 751 O_____________ hurdat_atl AL172000 29.8000 -71.0000 TS 45 1000 0 1 137
2000290N30289 2000 96 NA NA MICHAEL 2000-10-17 09:00:00 TS 29.7700 -70.9425 main 758 758 P_____________ AL172000 29.7700 -70.9425 TS 50 997 0 1 90
2000290N30289 2000 96 NA NA MICHAEL 2000-10-17 12:00:00 TS 29.8000 -70.9000 55 995 hurdat_atl main 758 749 O_____________ hurdat_atl AL172000 29.8000 -70.9000 TS 55 995 0 2 15
2000290N30289 2000 96 NA NA MICHAEL 2000-10-17 15:00:00 TS 29.9275 -70.8925 main 749 733 P_____________ AL172000 29.9275 -70.8925 TS 60 991 0 3 0
2000290N30289 2000 96 NA NA MICHAEL 2000-10-17 18:00:00 TS 30.1000 -70.9000 65 988 hurdat_atl main 733 725 O_____________ hurdat_atl AL172000 30.1000 -70.9000 HU 65 988 1 3 0
2000290N30289 2000 96 NA NA MICHAEL 2000-10-17 21:00:00 TS 30.2425 -70.9075 main 725 710 P_____________ AL172000 30.2425 -70.9075 HU 65 988 1 3 0
2000290N30289 2000 96 NA NA MICHAEL 2000-10-18 00:00:00 TS 30.4000 -70.9000 65 988 hurdat_atl main 710 694 O_____________ hurdat_atl AL172000 30.4000 -70.9000 HU 65 988 1 3 0
2000290N30289 2000 96 NA NA MICHAEL 2000-10-18 03:00:00 TS 30.5699 -70.8798 main 694 686 P_____________ AL172000 30.5699 -70.8798 HU 65 987 1 4 12
2000290N30289 2000 96 NA NA MICHAEL 2000-10-18 06:00:00 TS 30.8000 -70.8000 65 986 hurdat_atl main 686 671 O_____________ hurdat_atl AL172000 30.8000 -70.8000 HU 65 986 1 6 20
2000290N30289 2000 96 NA NA MICHAEL 2000-10-18 09:00:00 TS 31.0973 -70.6594 main 671 664 P_____________ AL172000 31.0973 -70.6594 HU 65 985 1 8 26
2000290N30289 2000 96 NA NA MICHAEL 2000-10-18 12:00:00 TS 31.5000 -70.4000 65 984 hurdat_atl main 666 653 O_____________ hurdat_atl AL172000 31.5000 -70.4000 HU 65 984 1 10 31
2000290N30289 2000 96 NA NA MICHAEL 2000-10-18 15:00:00 TS 31.9819 -70.0458 main 660 652 P_____________ AL172000 31.9819 -70.0458 HU 67 981 1 13 35
2000290N30289 2000 96 NA NA MICHAEL 2000-10-18 18:00:00 TS 32.6000 -69.5000 70 979 hurdat_atl main 655 655 O_____________ hurdat_atl AL172000 32.6000 -69.5000 HU 70 979 1 17 39
2000290N30289 2000 96 NA NA MICHAEL 2000-10-18 21:00:00 TS 33.3245 -68.7528 main 672 672 P_____________ AL172000 33.3245 -68.7528 HU 72 981 1 21 42
2000290N30289 2000 96 NA NA MICHAEL 2000-10-19 00:00:00 TS 34.2000 -67.8000 75 983 hurdat_atl main 721 721 O_____________ hurdat_atl AL172000 34.2000 -67.8000 HU 75 983 1 24 42
2000290N30289 2000 96 NA NA MICHAEL 2000-10-19 03:00:00 TS 35.1040 -66.8023 main 785 720 P_____________ AL172000 35.1040 -66.8023 HU 70 984 1 28 42
2000290N30289 2000 96 NA NA MICHAEL 2000-10-19 06:00:00 TS 36.3000 -65.5000 65 986 hurdat_atl main 715 648 O_____________ hurdat_atl AL172000 36.3000 -65.5000 HU 65 986 1 38 43
2000290N30289 2000 96 NA NA MICHAEL 2000-10-19 09:00:00 TS 37.8981 -63.6145 main 639 517 P_____________ AL172000 37.8981 -63.6145 HU 70 982 1 47 41
2000290N30289 2000 96 NA NA MICHAEL 2000-10-19 12:00:00 TS 39.8000 -61.6000 75 979 hurdat_atl main 512 397 O_____________ hurdat_atl AL172000 39.8000 -61.6000 HU 75 979 1 49 36
2000290N30289 2000 96 NA NA MICHAEL 2000-10-19 15:00:00 TS 41.8604 -59.9060 main 379 236 P_____________ AL172000 41.8604 -59.9060 HU 80 972 1 48 29
2000290N30289 2000 96 NA NA MICHAEL 2000-10-19 18:00:00 TS 44.0000 -58.5000 85 965 hurdat_atl main 232 154 O_____________ hurdat_atl AL172000 44.0000 -58.5000 HU 85 965 2 47 23
2000290N30289 2000 96 NA NA MICHAEL 2000-10-19 21:00:00 TS 46.1625 -57.3053 main 132 0 P_____________ AL172000 46.1625 -57.3053 HU 80 965 1 42 19
2000290N30289 2000 96 NA NA MICHAEL 2000-10-20 00:00:00 ET 48.0000 -56.5000 75 966 hurdat_atl main 0 0 O_____________ hurdat_atl AL172000 48.0000 -56.5000 EX 75 966 -4 31 13
2000290N30289 2000 96 NA NA MICHAEL 2000-10-20 03:00:00 ET 49.2206 -56.2687 main 0 0 P_____________ AL172000 49.2206 -56.2687 EX 72 966 -4 20 9
2000290N30289 2000 96 NA NA MICHAEL 2000-10-20 06:00:00 ET 50.0000 -56.0000 70 966 hurdat_atl main 11 11 O_____________ hurdat_atl AL172000 50.0000 -56.0000 EX 70 966 -4 16 32
2000290N30289 2000 96 NA NA MICHAEL 2000-10-20 09:00:00 ET 50.5758 -54.9357 main 77 77 P_____________ AL172000 50.5758 -54.9357 EX 67 967 -4 19 58
2000290N30289 2000 96 NA NA MICHAEL 2000-10-20 12:00:00 ET 51.0000 -53.5000 65 968 hurdat_atl main 145 145 O_____________ hurdat_atl AL172000 51.0000 -53.5000 EX 65 968 -4 20 64
2000290N30289 2000 96 NA NA MICHAEL 2000-10-20 15:00:00 ET 51.4776 -52.0077 main 241 241 P_____________ AL172000 51.4776 -52.0077 EX 62 969 -4 21 62
2000290N30289 2000 96 NA NA MICHAEL 2000-10-20 18:00:00 ET 52.0000 -50.5000 60 970 hurdat_atl main 346 O_____________ hurdat_atl AL172000 52.0000 -50.5000 EX 60 970 -4 21 61

IBTrACS Databaseについて

本データベースは、米国NOAAが公開する1842年以降の世界の熱帯低気圧のベストトラックデータアーカイブInternational Best Track Archive for Climate Stewardship (IBTrACS)を、ウェブで閲覧しやすい形式に変換したものです。

最終更新日:2021-10-21